createdAt,value
2022-11-22T00:00:15.818Z,100.00
2022-11-22T00:03:20.967Z,100.00
2022-11-22T00:06:26.183Z,100.00
2022-11-22T00:09:32.198Z,100.00
2022-11-22T00:12:38.404Z,100.00
2022-11-22T00:15:45.747Z,100.00
2022-11-22T00:18:50.917Z,99.50
2022-11-22T00:21:56.044Z,99.75
2022-11-22T00:25:00.564Z,100.00
2022-11-22T00:28:06.134Z,100.00
2022-11-22T00:31:05.844Z,100.00
2022-11-22T00:34:11.178Z,100.00
2022-11-22T00:37:17.641Z,100.00
2022-11-22T00:40:23.430Z,100.00
2022-11-22T00:43:27.980Z,100.00
2022-11-22T00:46:33.567Z,98.99
2022-11-22T00:49:39.220Z,100.00
2022-11-22T00:52:45.653Z,100.00
2022-11-22T00:55:51.291Z,100.00
2022-11-22T00:58:56.854Z,100.00
2022-11-22T01:02:01.678Z,100.00
2022-11-22T01:05:07.904Z,100.00
2022-11-22T01:08:12.627Z,100.00
2022-11-22T01:11:17.942Z,100.00
2022-11-22T01:14:23.059Z,100.00
2022-11-22T01:17:29.237Z,100.00
2022-11-22T01:20:35.164Z,100.00
2022-11-22T01:23:40.951Z,100.00
2022-11-22T01:26:46.599Z,100.00
2022-11-22T01:29:51.658Z,100.00
2022-11-22T01:32:57.355Z,100.00
2022-11-22T01:36:02.969Z,100.00
2022-11-22T01:39:09.611Z,100.00
2022-11-22T01:42:15.789Z,100.00
2022-11-22T01:45:52.537Z,100.00
2022-11-22T01:49:19.851Z,100.00
2022-11-22T01:52:30.291Z,100.00
2022-11-22T01:55:35.924Z,100.00
2022-11-22T01:58:41.364Z,100.00
2022-11-22T02:01:46.901Z,100.00
2022-11-22T02:04:52.942Z,100.00
2022-11-22T02:08:06.949Z,100.00
2022-11-22T02:11:15.740Z,100.00
2022-11-22T02:14:21.198Z,100.00
2022-11-22T02:17:28.220Z,100.00
2022-11-22T02:20:34.155Z,100.00
2022-11-22T02:23:59.797Z,100.00
2022-11-22T02:27:07.011Z,100.00
2022-11-22T02:30:12.034Z,100.00
2022-11-22T02:33:18.844Z,100.00
2022-11-22T02:36:25.903Z,100.00
2022-11-22T02:39:35.246Z,100.00
2022-11-22T02:42:40.744Z,100.00
2022-11-22T02:45:46.196Z,100.00
2022-11-22T02:48:58.562Z,100.00
2022-11-22T02:52:04.722Z,100.00
2022-11-22T02:55:10.099Z,100.00
2022-11-22T02:58:15.383Z,100.00
2022-11-22T03:01:13.893Z,100.00
2022-11-22T03:04:20.986Z,100.00
2022-11-22T03:07:26.941Z,100.00
2022-11-22T03:10:31.905Z,100.00
2022-11-22T03:13:37.780Z,100.00
2022-11-22T03:16:43.150Z,100.00
2022-11-22T03:19:48.951Z,100.00
2022-11-22T03:22:54.153Z,100.00
2022-11-22T03:25:58.540Z,100.00
2022-11-22T03:29:04.702Z,100.00
2022-11-22T03:32:10.425Z,100.00
2022-11-22T03:35:16.962Z,100.00
2022-11-22T03:38:15.773Z,100.00
2022-11-22T03:41:08.731Z,100.00
2022-11-22T03:44:14.877Z,100.00
2022-11-22T03:47:20.448Z,100.00
2022-11-22T03:50:26.471Z,100.00
2022-11-22T03:53:32.665Z,100.00
2022-11-22T03:56:38.262Z,100.00
2022-11-22T03:59:44.697Z,100.00
2022-11-22T04:02:51.105Z,100.00
2022-11-22T04:05:59.511Z,100.00
2022-11-22T07:24:57.002Z,100.00
2022-11-22T07:28:06.097Z,100.00
2022-11-22T07:31:30.680Z,100.00
2022-11-22T07:34:48.691Z,100.00
2022-11-22T07:38:08.149Z,100.00
2022-11-22T07:41:20.177Z,100.00
2022-11-22T07:44:30.428Z,100.00
2022-11-22T07:47:36.215Z,100.00
2022-11-22T07:50:40.750Z,100.00
2022-11-22T07:53:46.167Z,100.00
2022-11-22T07:56:51.186Z,100.00
2022-11-22T07:59:56.547Z,100.00
2022-11-22T08:03:07.578Z,100.00
2022-11-22T08:06:16.956Z,100.00
2022-11-22T08:09:24.931Z,100.00
2022-11-22T08:12:52.809Z,100.00
2022-11-22T08:16:25.572Z,100.00
2022-11-22T08:23:41.640Z,100.00
2022-11-22T08:26:49.538Z,100.00
2022-11-22T08:29:56.555Z,100.00
2022-11-22T08:33:13.802Z,100.00
2022-11-22T08:36:21.156Z,97.89
2022-11-22T08:39:27.128Z,98.71
2022-11-22T08:42:33.402Z,96.97
2022-11-22T08:45:39.529Z,97.24
2022-11-22T08:48:55.084Z,99.51
2022-11-22T08:51:59.955Z,98.69
2022-11-22T08:55:06.819Z,96.15
2022-11-22T08:58:16.102Z,96.33
2022-11-22T09:01:27.649Z,95.39
2022-11-22T09:04:33.943Z,96.79
2022-11-22T09:10:48.506Z,96.50
2022-11-22T09:13:56.671Z,95.93
2022-11-22T09:17:02.358Z,95.71
2022-11-22T09:20:00.756Z,95.30
2022-11-22T09:23:07.375Z,95.80
2022-11-22T09:26:18.381Z,95.92
2022-11-22T09:29:27.380Z,95.39
2022-11-22T09:32:34.642Z,95.33
2022-11-22T09:35:40.745Z,93.95
2022-11-22T09:38:46.146Z,90.48
2022-11-22T09:42:19.698Z,89.58
2022-11-22T09:46:07.634Z,89.76
2022-11-22T09:49:54.375Z,90.51
2022-11-22T09:53:12.305Z,89.32
2022-11-22T09:56:22.211Z,88.63
2022-11-22T09:59:37.710Z,89.71
2022-11-22T10:03:00.324Z,90.70
2022-11-22T10:06:05.488Z,90.51
2022-11-22T10:09:52.442Z,90.67
2022-11-22T10:13:06.372Z,90.62
2022-11-22T10:16:27.189Z,90.63
2022-11-22T10:19:44.960Z,89.75
2022-11-22T10:22:51.540Z,89.03
2022-11-22T10:26:20.922Z,88.81
2022-11-22T10:29:54.145Z,89.26
2022-11-22T10:33:21.271Z,89.57
2022-11-22T10:36:42.090Z,89.15
2022-11-22T10:39:52.912Z,88.76
2022-11-22T10:43:14.526Z,89.68
2022-11-22T10:46:38.090Z,88.89
2022-11-22T10:50:25.862Z,85.95
2022-11-22T10:54:10.892Z,88.86
2022-11-22T10:57:46.628Z,94.19
2022-11-22T11:01:10.160Z,96.65
2022-11-22T11:04:32.749Z,97.30
2022-11-22T11:07:41.242Z,97.59
2022-11-22T11:10:50.134Z,97.57
2022-11-22T11:14:11.369Z,96.74
2022-11-22T11:17:17.947Z,96.58
2022-11-22T11:20:39.304Z,96.29
2022-11-22T11:23:48.292Z,95.80
2022-11-22T11:26:53.776Z,96.42
2022-11-22T11:30:17.059Z,96.52
2022-11-22T11:33:34.000Z,96.75
2022-11-22T11:36:39.861Z,96.65
2022-11-22T11:39:49.441Z,96.20
2022-11-22T11:42:55.609Z,96.22
2022-11-22T11:46:01.997Z,95.47
2022-11-22T11:49:10.833Z,95.79
2022-11-22T11:52:29.314Z,96.27
2022-11-22T11:55:35.109Z,96.93
2022-11-22T11:58:40.141Z,97.06
2022-11-22T12:01:49.423Z,97.46
2022-11-22T12:05:15.164Z,97.32
2022-11-22T12:08:44.289Z,97.05
2022-11-22T12:11:56.672Z,96.78
2022-11-22T12:15:11.891Z,96.98
2022-11-22T12:18:38.349Z,97.13
2022-11-22T12:22:29.334Z,96.95
2022-11-22T12:25:53.538Z,96.65
2022-11-22T12:29:00.085Z,96.26
2022-11-22T12:32:27.837Z,95.80
2022-11-22T12:35:42.241Z,95.63
2022-11-22T12:38:51.128Z,94.52
2022-11-22T12:41:57.968Z,93.59
2022-11-22T12:45:23.833Z,94.00
2022-11-22T12:48:34.655Z,93.95
2022-11-22T12:51:47.156Z,94.45
2022-11-22T12:55:12.454Z,94.62
2022-11-22T12:58:55.243Z,95.14
2022-11-22T13:02:10.603Z,94.99
2022-11-22T13:05:21.265Z,94.40
2022-11-22T13:08:57.677Z,94.27
2022-11-22T13:12:09.462Z,94.21
2022-11-22T13:15:15.585Z,94.31
2022-11-22T13:18:24.346Z,93.25
2022-11-22T13:21:56.016Z,93.12
2022-11-22T13:25:20.737Z,93.08
2022-11-22T16:16:28.967Z,100.00
2022-11-22T16:19:38.726Z,100.00
2022-11-22T16:22:46.921Z,100.00
2022-11-22T16:25:55.182Z,100.00
2022-11-22T16:29:02.434Z,100.00
2022-11-22T16:32:15.027Z,100.00
2022-11-22T16:35:30.141Z,100.00
2022-11-22T16:38:37.459Z,100.00
2022-11-22T16:41:43.247Z,100.00
2022-11-22T16:44:49.591Z,100.00
2022-11-22T16:48:16.613Z,100.00
2022-11-22T16:51:17.442Z,100.00
2022-11-22T16:54:25.851Z,100.00
2022-11-22T16:57:31.187Z,100.00
2022-11-22T17:00:36.935Z,100.00
2022-11-22T17:03:43.368Z,100.00
2022-11-22T17:06:51.620Z,100.00
2022-11-22T17:09:59.189Z,100.00
2022-11-22T17:13:05.614Z,100.00
2022-11-22T17:16:11.832Z,100.00
2022-11-22T17:22:25.389Z,100.00
2022-11-22T17:25:32.507Z,100.00
2022-11-22T17:28:37.970Z,100.00
2022-11-22T17:31:42.934Z,98.90
2022-11-22T17:34:48.776Z,100.00
2022-11-22T17:37:55.272Z,100.00
2022-11-22T17:41:01.467Z,100.00
2022-11-22T17:44:05.755Z,100.00
2022-11-22T17:47:10.717Z,100.00
2022-11-22T17:50:16.067Z,100.00
2022-11-22T17:53:22.319Z,100.00
2022-11-22T17:56:28.304Z,98.71
2022-11-22T17:59:33.366Z,98.84
2022-11-22T18:02:39.461Z,98.95
2022-11-22T18:05:46.325Z,98.16
2022-11-22T18:08:50.963Z,98.57
2022-11-22T18:11:56.681Z,98.50
2022-11-22T18:15:05.665Z,97.74
2022-11-22T18:18:21.924Z,96.56
2022-11-22T18:21:20.993Z,95.46
2022-11-22T18:24:26.266Z,94.20
2022-11-22T18:27:31.896Z,93.18
2022-11-22T18:30:39.923Z,92.50
2022-11-22T18:33:45.897Z,90.90
2022-11-22T18:37:00.740Z,88.54
2022-11-22T18:39:59.216Z,90.99
2022-11-22T18:43:05.493Z,91.91
2022-11-22T18:46:18.310Z,92.01
2022-11-22T18:49:24.061Z,91.53
2022-11-22T18:52:29.818Z,91.02
2022-11-22T18:55:34.498Z,90.46
2022-11-22T18:58:41.163Z,91.28
2022-11-22T19:01:47.742Z,91.10
2022-11-22T19:04:53.180Z,91.18
2022-11-22T19:08:03.872Z,90.54
2022-11-22T19:11:12.077Z,89.07
2022-11-22T19:14:17.759Z,89.25
2022-11-22T19:17:23.040Z,88.86
2022-11-22T19:20:54.172Z,89.01
2022-11-22T19:23:39.025Z,89.14
2022-11-22T19:26:44.599Z,88.26
2022-11-22T19:29:50.082Z,88.53
2022-11-22T19:32:56.195Z,88.60
2022-11-22T19:36:12.982Z,88.64
2022-11-22T19:39:20.112Z,88.73
2022-11-22T19:42:27.480Z,87.90
2022-11-22T19:45:34.023Z,86.90
2022-11-22T19:48:45.380Z,86.40
2022-11-22T19:51:47.473Z,86.81
2022-11-22T19:54:53.476Z,87.18
2022-11-22T19:57:59.502Z,87.48
2022-11-22T20:01:05.541Z,86.77
2022-11-22T20:04:19.270Z,86.46
2022-11-22T20:07:24.994Z,86.05
2022-11-22T20:10:31.141Z,86.00
2022-11-22T20:13:37.533Z,87.85
2022-11-22T20:16:43.700Z,86.81
2022-11-22T20:19:48.783Z,85.95
2022-11-22T20:22:54.066Z,85.74
2022-11-22T20:26:00.186Z,85.80
2022-11-22T20:29:14.928Z,84.86
2022-11-22T20:32:20.562Z,86.73
2022-11-22T20:35:25.800Z,86.35
2022-11-22T20:38:32.226Z,85.48
2022-11-22T20:41:40.383Z,85.83
2022-11-22T20:44:45.627Z,85.42
2022-11-22T20:47:51.311Z,86.16
2022-11-22T20:50:56.921Z,86.55
2022-11-22T20:54:02.564Z,87.23
2022-11-22T20:57:09.194Z,84.91
2022-11-22T21:00:14.680Z,86.09
2022-11-22T21:03:20.830Z,86.36
2022-11-22T21:06:26.330Z,83.78
2022-11-22T21:09:30.960Z,81.25
2022-11-22T21:12:36.816Z,80.37
2022-11-22T21:15:42.908Z,80.19
2022-11-22T21:18:48.602Z,79.48
2022-11-22T21:21:54.551Z,77.93
2022-11-22T21:24:59.788Z,80.57
2022-11-22T21:27:59.411Z,82.77
2022-11-22T21:31:09.855Z,84.78
2022-11-22T21:34:15.472Z,85.28
2022-11-22T21:37:21.847Z,83.00
2022-11-22T21:40:28.460Z,80.97
2022-11-22T21:43:34.718Z,82.24
2022-11-22T21:46:39.711Z,81.92
2022-11-22T21:49:45.370Z,82.40
2022-11-22T21:52:51.344Z,83.89
2022-11-22T21:56:10.907Z,84.23
2022-11-22T21:59:15.810Z,82.38
2022-11-22T22:02:21.631Z,81.29
2022-11-22T22:05:27.705Z,81.42
2022-11-22T22:08:35.563Z,82.24
2022-11-22T22:11:34.203Z,83.04
2022-11-22T22:14:40.536Z,83.51
2022-11-22T22:17:45.231Z,83.74
2022-11-22T22:20:50.719Z,82.71
2022-11-22T22:23:56.139Z,83.34
2022-11-22T22:27:02.798Z,84.04
2022-11-22T22:30:09.432Z,83.66
2022-11-22T22:33:15.139Z,82.10
2022-11-22T22:36:21.022Z,82.56
2022-11-22T22:39:26.629Z,82.19
2022-11-22T22:42:32.727Z,82.17
2022-11-22T22:45:40.161Z,82.49
2022-11-22T22:48:46.827Z,81.27
2022-11-22T22:51:52.809Z,80.91
2022-11-22T22:54:58.612Z,80.03
2022-11-22T22:58:05.201Z,80.24
2022-11-22T23:01:20.217Z,80.73
2022-11-22T23:04:26.581Z,80.58
2022-11-22T23:07:32.275Z,80.45
2022-11-22T23:10:40.076Z,79.24
2022-11-22T23:13:47.073Z,77.65
2022-11-22T23:16:57.933Z,78.45
2022-11-22T23:19:56.888Z,76.33
2022-11-22T23:23:04.484Z,76.85
2022-11-22T23:26:10.394Z,78.42
2022-11-22T23:29:15.732Z,78.32
2022-11-22T23:32:21.474Z,78.87
2022-11-22T23:35:26.997Z,78.19
2022-11-22T23:38:33.056Z,77.84
2022-11-22T23:41:39.659Z,77.23
2022-11-22T23:44:38.572Z,77.25
2022-11-22T23:47:45.348Z,78.92
2022-11-22T23:50:52.073Z,80.23
2022-11-22T23:53:57.735Z,78.87
2022-11-22T23:57:02.653Z,78.54
